This is the latest recevied weather packets stored in our database for station/object YO8RBY-2. If no packets are shown the sender has not sent any weather packets the latest 10 day(s).
| Time | Temp. | Humidity | Pressure | Rain* | Wind** | Luminosity | Snow |
|---|---|---|---|---|---|---|---|
| 1777316215 | 12.22° C | 36% | 977 hPa | - | - | 0 W/m² | - |
| 1777314391 | 13.89° C | 33% | 977 hPa | - | - | 0 W/m² | - |
| 1777312539 | 16.11° C | 29% | 976 hPa | - | - | 0 W/m² | - |
| 1777310715 | 19.44° C | 22% | 976 hPa | - | - | 0 W/m² | - |
| 1777308890 | 26.11° C | 16% | 975 hPa | - | - | 0 W/m² | - |
| 1777307066 | 49.44° C | 5% | 975 hPa | - | - | 0 W/m² | - |
| 1777305242 | 52.78° C | 4% | 974 hPa | - | - | 0 W/m² | - |
| 1777303418 | 48.89° C | 5% | 974 hPa | - | - | 0 W/m² | - |
| 1777301593 | 35.56° C | 11% | 975 hPa | - | - | 0 W/m² | - |
| 1777296121 | 27.22° C | 16% | 975 hPa | - | - | 0 W/m² | - |
| 1777294297 | 26.11° C | 16% | 976 hPa | - | - | 0 W/m² | - |
| 1777292473 | 25° C | 17% | 976 hPa | - | - | 0 W/m² | - |
| 1777290650 | 23.89° C | 17% | 977 hPa | - | - | 0 W/m² | - |
| 1777288824 | 23.33° C | 17% | 977 hPa | - | - | 0 W/m² | - |
| 1777286999 | 21.67° C | 18% | 978 hPa | - | - | 0 W/m² | - |
| 1777285174 | 21.67° C | 18% | 978 hPa | - | - | 0 W/m² | - |
| 1777283350 | 20.56° C | 19% | 979 hPa | - | - | 0 W/m² | - |
| 1777281525 | 20.56° C | 20% | 979 hPa | - | - | 0 W/m² | - |
| 1777279700 | 19.44° C | 20% | 980 hPa | - | - | 0 W/m² | - |
| 1777277875 | 18.33° C | 21% | 980 hPa | - | - | 0 W/m² | - |
| 1777276050 | 17.78° C | 23% | 980 hPa | - | - | 0 W/m² | - |
| 1777274225 | 16.67° C | 24% | 981 hPa | - | - | 0 W/m² | - |
| 1777272400 | 15.56° C | 26% | 981 hPa | - | - | 0 W/m² | - |
| 1777270575 | 13.89° C | 27% | 981 hPa | - | - | 0 W/m² | - |
| 1777268751 | 11.11° C | 32% | 981 hPa | - | - | 0 W/m² | - |
* Rain since midnight (hover to see other rain measurements)
** Current wind speed in m/s (hover to see current wind gust speed)